METAR AND TAF INFORMATION
METAR FOR BKPR
ADDS - METARS form results

(2124 UTC 15 December 2017)
Data provider http://aviationweather.gov/adds/metars/
 
METAR text: BKPR 152130Z 18005KT 150V220 9999 FEW040 BKN070 09/04 Q1003 NOSIG RMK 17010095
Conditions at: BKPR (PRISHTINA , CS) observed 2130 UTC 15 December 2017
Temperature: 9.0°C (48°F)
Dewpoint: 4.0°C (39°F) [RH = 71%]
Pressure (altimeter): 29.62 inches Hg (1003.0 mb)
Winds: from the S (180 degrees) at 6 MPH (5 knots; 2.6 m/s)
Visibility: 6 or more miles (10+ km)
Ceiling: 7000 feet AGL
Clouds: few clouds at 4000 feet AGL
broken clouds at 7000 feet AGL
Weather: no significant weather observed at this time

METAR text: BKPR 152100Z 20006KT 140V250 9999 FEW040 BKN070 09/03 Q1003 NOSIG RMK 17010095
Conditions at: BKPR (PRISHTINA , CS) observed 2100 UTC 15 December 2017
Temperature: 9.0°C (48°F)
Dewpoint: 3.0°C (37°F) [RH = 66%]
Pressure (altimeter): 29.62 inches Hg (1003.0 mb)
Winds: from the SSW (200 degrees) at 7 MPH (6 knots; 3.1 m/s)
Visibility: 6 or more miles (10+ km)
Ceiling: 7000 feet AGL
Clouds: few clouds at 4000 feet AGL
broken clouds at 7000 feet AGL
Weather: no significant weather observed at this time

METAR text: BKPR 152030Z 17007KT 130V220 9999 FEW040 BKN070 08/03 Q1004 NOSIG RMK 17010095
Conditions at: BKPR (PRISHTINA , CS) observed 2030 UTC 15 December 2017
Temperature: 8.0°C (46°F)
Dewpoint: 3.0°C (37°F) [RH = 71%]
Pressure (altimeter): 29.65 inches Hg (1004.0 mb)
Winds: from the S (170 degrees) at 8 MPH (7 knots; 3.6 m/s)
Visibility: 6 or more miles (10+ km)
Ceiling: 7000 feet AGL
Clouds: few clouds at 4000 feet AGL
broken clouds at 7000 feet AGL
Weather: no significant weather observed at this time

Forecast for: BKPR (PRISHTINA , CS)
Text: TAF BKPR 151730Z 1518/1618 18010KT 9999 SCT030 BKN080
Forecast period: 1800 UTC 15 December 2017 to 1800 UTC 16 December 2017
Forecast type: FROM: standard forecast or significant change
Winds: from the S (180 degrees) at 12 MPH (10 knots; 5.2 m/s)
Visibility: 6 or more miles (10+ km)
Ceiling: 8000 feet AGL
Clouds: scattered clouds at 3000 feet AGL
broken clouds at 8000 feet AGL
Weather: no significant weather forecast for this period
Text: TEMPO 1518/1606 19015G28KT
Forecast period: 1800 UTC 15 December 2017 to 0600 UTC 16 December 2017
Forecast type: TEMPORARY: The following changes expected for less than half the time period
Winds: from the S (190 degrees) at 17 MPH (15 knots; 7.8 m/s)
gusting to 32 MPH (28 knots; 14.6 m/s)
Weather: no significant weather forecast for this period
Text: TEMPO 1611/1618 4000 -RA BR
Forecast period: 1100 to 1800 UTC 16 December 2017
Forecast type: TEMPORARY: The following changes expected for less than half the time period
Visibility: 2.49 miles (4.01 km)
Weather: -RA BR  (light rain, mist)

 AIRPORT MAP

 RUNWAY INFORMATION
Runway 17 Runway length 8165 ft Runway width 148 ft
Runway elevation 1789 ft Runway displaced threshold 0 ft Runway heading 176
Runway 35 Runway length 8165 ft Runway width 148 ft
Runway elevation 1786 ft Runway displaced threshold 0 ft Runway heading 356

 AIRPORT FREQUENCIES
Type APP Name APP Frequency 118.775 MHZ
Type GND Name GND Frequency 118 MHZ
Type RMP Name RAMP OPR Frequency 136.8 MHZ
Type TWR Name TWR Frequency 120.125 MHZ

 AIRPORT NEAR NAVIGATION AIDS